Time,TemperatureF,DewpointF,PressureIn,WindDirection,WindDirectionDegrees,WindSpeedMPH,WindSpeedGustMPH,Humidity,HourlyPrecipIn,Conditions,Clouds,dailyrainin,SolarRadiationWatts/m^2,SoftwareType,DateUTC
2013-06-15 00:00:00,46.0,35.0,-100.00,NE,45,2.0,-999.0,65,-99.99,,,-99.99,0.000000,,2013-06-15 04:00:00,
2013-06-15 00:43:00,46.0,35.0,-100.00,NE,45,2.0,-999.0,65,-99.99,,,-99.99,0.000000,,2013-06-15 04:43:00,
2013-06-15 00:54:00,46.0,35.0,-100.00,NE,45,2.0,-999.0,65,-99.99,,,-99.99,0.000000,,2013-06-15 04:54:00,
2013-06-15 01:00:00,45.0,36.0,-100.00,NE,45,1.0,-999.0,69,-99.99,,,-99.99,0.000000,,2013-06-15 05:00:00,
2013-06-15 01:43:00,45.0,36.0,-100.00,NE,45,1.0,-999.0,69,-99.99,,,-99.99,0.000000,,2013-06-15 05:43:00,
2013-06-15 01:52:00,45.0,36.0,-100.00,NE,45,1.0,-999.0,69,-99.99,,,-99.99,0.000000,,2013-06-15 05:52:00,
2013-06-15 02:00:00,45.0,34.0,-100.00,NE,45,1.0,-999.0,65,-99.99,,,-99.99,0.000000,,2013-06-15 06:00:00,
2013-06-15 02:43:00,45.0,34.0,-100.00,NE,45,1.0,-999.0,65,-99.99,,,-99.99,0.000000,,2013-06-15 06:43:00,
2013-06-15 02:53:00,45.0,34.0,-100.00,NE,45,1.0,-999.0,65,-99.99,,,-99.99,0.000000,,2013-06-15 06:53:00,
2013-06-15 04:00:00,44.0,39.0,-100.00,NE,45,1.0,-999.0,81,-99.99,,,-99.99,0.000000,,2013-06-15 08:00:00,
2013-06-15 04:33:00,44.0,39.0,-100.00,NE,45,1.0,-999.0,81,-99.99,,,-99.99,0.000000,,2013-06-15 08:33:00,
2013-06-15 04:43:00,44.0,39.0,-100.00,NE,45,1.0,-999.0,81,-99.99,,,-99.99,0.000000,,2013-06-15 08:43:00,
2013-06-15 04:53:00,44.0,39.0,-100.00,NE,45,1.0,-999.0,81,-99.99,,,-99.99,0.000000,,2013-06-15 08:53:00,
2013-06-15 05:00:00,47.0,40.0,-100.00,NE,45,1.0,-999.0,78,-99.99,,,-99.99,0.000000,,2013-06-15 09:00:00,
2013-06-15 05:43:00,47.0,40.0,-100.00,NE,45,1.0,-999.0,78,-99.99,,,-99.99,0.000000,,2013-06-15 09:43:00,
2013-06-15 05:52:00,47.0,40.0,-100.00,NE,45,1.0,-999.0,78,-99.99,,,-99.99,0.000000,,2013-06-15 09:52:00,
2013-06-15 06:00:00,48.0,42.0,-100.00,ESE,112,1.0,-999.0,79,-99.99,,,-99.99,1.160000,,2013-06-15 10:00:00,
2013-06-15 06:44:00,48.0,42.0,-100.00,ESE,112,1.0,-999.0,79,-99.99,,,-99.99,1.160000,,2013-06-15 10:44:00,
2013-06-15 06:53:00,48.0,42.0,-100.00,ESE,112,1.0,-999.0,79,-99.99,,,-99.99,1.160000,,2013-06-15 10:53:00,
2013-06-15 07:00:00,49.0,43.0,-100.00,ENE,67,0.0,-999.0,78,-99.99,,,-99.99,10.440000,,2013-06-15 11:00:00,
2013-06-15 07:43:00,49.0,43.0,-100.00,ENE,67,0.0,-999.0,78,-99.99,,,-99.99,10.440000,,2013-06-15 11:43:00,
2013-06-15 07:53:00,49.0,43.0,-100.00,ENE,67,0.0,-999.0,78,-99.99,,,-99.99,10.440000,,2013-06-15 11:53:00,
2013-06-15 08:00:00,52.0,45.0,-100.00,ENE,67,1.0,-999.0,77,-99.99,,,-99.99,73.080002,,2013-06-15 12:00:00,
2013-06-15 08:44:00,52.0,45.0,-100.00,ENE,67,1.0,-999.0,77,-99.99,,,-99.99,73.080002,,2013-06-15 12:44:00,
2013-06-15 08:52:00,52.0,45.0,-100.00,ENE,67,1.0,-999.0,77,-99.99,,,-99.99,73.080002,,2013-06-15 12:52:00,
2013-06-15 09:00:00,57.0,47.0,-100.00,NE,45,0.0,-999.0,68,-99.99,,,-99.99,169.360001,,2013-06-15 13:00:00,
2013-06-15 09:44:00,57.0,47.0,-100.00,NE,45,0.0,-999.0,68,-99.99,,,-99.99,169.360001,,2013-06-15 13:44:00,
2013-06-15 09:53:00,57.0,47.0,-100.00,NE,45,0.0,-999.0,68,-99.99,,,-99.99,169.360001,,2013-06-15 13:53:00,
2013-06-15 10:00:00,59.0,47.0,-100.00,South,180,1.0,-999.0,63,-99.99,,,-99.99,233.160004,,2013-06-15 14:00:00,
2013-06-15 10:34:00,59.0,47.0,-100.00,South,180,1.0,-999.0,63,-99.99,,,-99.99,233.160004,,2013-06-15 14:34:00,
2013-06-15 10:43:00,59.0,47.0,-100.00,South,180,1.0,-999.0,63,-99.99,,,-99.99,233.160004,,2013-06-15 14:43:00,
2013-06-15 10:54:00,59.0,47.0,-100.00,South,180,1.0,-999.0,63,-99.99,,,-99.99,233.160004,,2013-06-15 14:54:00,
2013-06-15 11:00:00,61.0,44.0,-100.00,SSW,202,2.0,-999.0,53,-99.99,,,-99.99,342.200012,,2013-06-15 15:00:00,
2013-06-15 11:33:00,61.0,44.0,-100.00,SSW,202,2.0,-999.0,53,-99.99,,,-99.99,342.200012,,2013-06-15 15:33:00,
2013-06-15 11:43:00,61.0,44.0,-100.00,SSW,202,2.0,-999.0,53,-99.99,,,-99.99,342.200012,,2013-06-15 15:43:00,
2013-06-15 11:53:00,61.0,44.0,-100.00,SSW,202,2.0,-999.0,53,-99.99,,,-99.99,342.200012,,2013-06-15 15:53:00,
2013-06-15 12:00:00,66.0,42.0,-100.00,South,180,3.0,-999.0,42,-99.99,,,-99.99,424.559998,,2013-06-15 16:00:00,
2013-06-15 12:33:00,66.0,42.0,-100.00,South,180,3.0,-999.0,42,-99.99,,,-99.99,424.559998,,2013-06-15 16:33:00,
2013-06-15 12:43:00,66.0,42.0,-100.00,South,180,3.0,-999.0,42,-99.99,,,-99.99,424.559998,,2013-06-15 16:43:00,
2013-06-15 12:53:00,66.0,42.0,-100.00,South,180,3.0,-999.0,42,-99.99,,,-99.99,424.559998,,2013-06-15 16:53:00,
2013-06-15 13:00:00,66.0,46.0,-100.00,South,180,2.0,-999.0,48,-99.99,,,-99.99,261.000000,,2013-06-15 17:00:00,
2013-06-15 13:32:00,66.0,46.0,-100.00,South,180,2.0,-999.0,48,-99.99,,,-99.99,261.000000,,2013-06-15 17:32:00,
2013-06-15 13:43:00,66.0,46.0,-100.00,South,180,2.0,-999.0,48,-99.99,,,-99.99,261.000000,,2013-06-15 17:43:00,
2013-06-15 13:52:00,66.0,46.0,-100.00,South,180,2.0,-999.0,48,-99.99,,,-99.99,261.000000,,2013-06-15 17:52:00,
2013-06-15 14:00:00,70.0,48.0,-100.00,SSW,202,2.0,-999.0,44,-99.99,,,-99.99,496.480011,,2013-06-15 18:00:00,
2013-06-15 14:33:00,70.0,48.0,-100.00,SSW,202,2.0,-999.0,44,-99.99,,,-99.99,496.480011,,2013-06-15 18:33:00,
2013-06-15 14:43:00,70.0,48.0,-100.00,SSW,202,2.0,-999.0,44,-99.99,,,-99.99,496.480011,,2013-06-15 18:43:00,
2013-06-15 14:53:00,70.0,48.0,-100.00,SSW,202,2.0,-999.0,44,-99.99,,,-99.99,496.480011,,2013-06-15 18:53:00,
2013-06-15 15:00:00,72.0,50.0,-100.00,WSW,247,3.0,-999.0,47,-99.99,,,-99.99,544.039978,,2013-06-15 19:00:00,
2013-06-15 15:33:00,72.0,50.0,-100.00,WSW,247,3.0,-999.0,47,-99.99,,,-99.99,544.039978,,2013-06-15 19:33:00,
2013-06-15 15:43:00,72.0,50.0,-100.00,WSW,247,3.0,-999.0,47,-99.99,,,-99.99,544.039978,,2013-06-15 19:43:00,
2013-06-15 15:53:00,72.0,50.0,-100.00,WSW,247,3.0,-999.0,47,-99.99,,,-99.99,544.039978,,2013-06-15 19:53:00,
2013-06-15 16:00:00,72.0,53.0,-100.00,WSW,247,5.0,-999.0,52,-99.99,,,-99.99,459.359985,,2013-06-15 20:00:00,
2013-06-15 16:33:00,72.0,53.0,-100.00,WSW,247,5.0,-999.0,52,-99.99,,,-99.99,459.359985,,2013-06-15 20:33:00,
2013-06-15 16:43:00,72.0,53.0,-100.00,WSW,247,5.0,-999.0,52,-99.99,,,-99.99,459.359985,,2013-06-15 20:43:00,
2013-06-15 16:53:00,72.0,53.0,-100.00,WSW,247,5.0,-999.0,52,-99.99,,,-99.99,459.359985,,2013-06-15 20:53:00,
2013-06-15 17:00:00,71.0,54.0,-100.00,WSW,247,5.0,-999.0,55,-99.99,,,-99.99,411.799988,,2013-06-15 21:00:00,
2013-06-15 17:34:00,71.0,54.0,-100.00,WSW,247,5.0,-999.0,55,-99.99,,,-99.99,411.799988,,2013-06-15 21:34:00,
2013-06-15 17:42:00,71.0,54.0,-100.00,WSW,247,5.0,-999.0,55,-99.99,,,-99.99,411.799988,,2013-06-15 21:42:00,
2013-06-15 17:53:00,71.0,54.0,-100.00,WSW,247,5.0,-999.0,55,-99.99,,,-99.99,411.799988,,2013-06-15 21:53:00,
2013-06-15 18:00:00,69.0,55.0,-100.00,SW,225,3.0,-999.0,60,-99.99,,,-99.99,208.800003,,2013-06-15 22:00:00,
2013-06-15 18:33:00,69.0,55.0,-100.00,SW,225,3.0,-999.0,60,-99.99,,,-99.99,208.800003,,2013-06-15 22:33:00,
2013-06-15 18:43:00,69.0,55.0,-100.00,SW,225,3.0,-999.0,60,-99.99,,,-99.99,208.800003,,2013-06-15 22:43:00,
2013-06-15 18:53:00,69.0,55.0,-100.00,SW,225,3.0,-999.0,60,-99.99,,,-99.99,208.800003,,2013-06-15 22:53:00,
2013-06-15 19:00:00,70.0,56.0,-100.00,South,180,2.0,-999.0,61,-99.99,,,-99.99,155.440002,,2013-06-15 23:00:00,
2013-06-15 19:33:00,70.0,56.0,-100.00,South,180,2.0,-999.0,61,-99.99,,,-99.99,155.440002,,2013-06-15 23:33:00,
2013-06-15 19:43:00,70.0,56.0,-100.00,South,180,2.0,-999.0,61,-99.99,,,-99.99,155.440002,,2013-06-15 23:43:00,
2013-06-15 19:53:00,70.0,56.0,-100.00,South,180,2.0,-999.0,61,-99.99,,,-99.99,155.440002,,2013-06-15 23:53:00,
2013-06-15 20:00:00,68.0,57.0,-100.00,SSE,157,2.0,-999.0,65,-99.99,,,-99.99,59.160000,,2013-06-16 00:00:00,
2013-06-15 20:34:00,68.0,57.0,-100.00,SSE,157,2.0,-999.0,65,-99.99,,,-99.99,59.160000,,2013-06-16 00:34:00,
2013-06-15 20:43:00,68.0,57.0,-100.00,SSE,157,2.0,-999.0,65,-99.99,,,-99.99,59.160000,,2013-06-16 00:43:00,
2013-06-15 20:52:00,68.0,57.0,-100.00,SSE,157,2.0,-999.0,65,-99.99,,,-99.99,59.160000,,2013-06-16 00:52:00,
2013-06-15 21:00:00,68.0,57.0,-100.00,South,180,1.0,-999.0,68,-99.99,,,-99.99,8.120000,,2013-06-16 01:00:00,
2013-06-15 21:33:00,68.0,57.0,-100.00,South,180,1.0,-999.0,68,-99.99,,,-99.99,8.120000,,2013-06-16 01:33:00,
2013-06-15 21:43:00,68.0,57.0,-100.00,South,180,1.0,-999.0,68,-99.99,,,-99.99,8.120000,,2013-06-16 01:43:00,
2013-06-15 21:53:00,68.0,57.0,-100.00,South,180,1.0,-999.0,68,-99.99,,,-99.99,8.120000,,2013-06-16 01:53:00,
2013-06-15 22:00:00,67.0,58.0,-100.00,SSE,157,0.0,-999.0,73,-99.99,,,-99.99,1.160000,,2013-06-16 02:00:00,
2013-06-15 22:33:00,67.0,58.0,-100.00,SSE,157,0.0,-999.0,73,-99.99,,,-99.99,1.160000,,2013-06-16 02:33:00,
2013-06-15 22:43:00,67.0,58.0,-100.00,SSE,157,0.0,-999.0,73,-99.99,,,-99.99,1.160000,,2013-06-16 02:43:00,
2013-06-15 22:53:00,67.0,58.0,-100.00,SSE,157,0.0,-999.0,73,-99.99,,,-99.99,1.160000,,2013-06-16 02:53:00,
2013-06-15 23:00:00,66.0,58.0,-100.00,SW,225,1.0,-999.0,75,-99.99,,,-99.99,0.000000,,2013-06-16 03:00:00,
2013-06-15 23:34:00,66.0,58.0,-100.00,SW,225,1.0,-999.0,75,-99.99,,,-99.99,0.000000,,2013-06-16 03:34:00,
2013-06-15 23:43:00,66.0,58.0,-100.00,SW,225,1.0,-999.0,75,-99.99,,,-99.99,0.000000,,2013-06-16 03:43:00,
2013-06-15 23:53:00,66.0,58.0,-100.00,SW,225,1.0,-999.0,75,-99.99,,,-99.99,0.000000,,2013-06-16 03:53:00,